LFKC/CLY METAR and TAF weather

Enter ICAO airport designator
Station Type Date Time Source
LFKC METAR 2022/08/16 18:30 UTC NOAA

LFKC 161830Z AUTO 04003KT 9999 FEW049 27/23 Q1010 NOSIG


Station Type Date Time Source
LFKC Decoded METAR 2022/08/16 18:30 UTC NOAA

Calvi, France (LFKC) 42-32N 008-48E 58M
Aug 16, 2022 - 02:30 PM EDT / 2022.08.16 1830 UTC
Wind: from the NE (040 degrees) at 3 MPH (3 KT):0
Visibility: greater than 7 mile(s):0
Sky conditions: mostly clear
Temperature: 80 F (27 C)
Dew Point: 73 F (23 C)
Relative Humidity: 78%
Pressure (altimeter): 29.83 in. Hg (1010 hPa)
ob: LFKC 161830Z AUTO 04003KT 9999 FEW049 27/23 Q1010 NOSIG
cycle: 18

Station Type Date Time Source
LFKC TAF 2022/08/16 15:23 UTC NOAA

TAF LFKC 161400Z 1615/1715 35010KT 9999 BKN035 TX33/1712Z TN21/1704Z
BECMG 1618/1620 18004KT CAVOK
BECMG 1707/1709 35010KT

Example: see airport list